createdAt,value
2019-05-12T00:00:21.499Z,62.20
2019-05-12T00:02:50.736Z,62.10
2019-05-12T00:05:19.940Z,62.10
2019-05-12T00:07:49.162Z,62.10
2019-05-12T00:10:18.371Z,62.00
2019-05-12T00:12:48.530Z,62.10
2019-05-12T00:15:19.138Z,62.10
2019-05-12T00:17:49.071Z,61.70
2019-05-12T00:20:18.601Z,61.90
2019-05-12T00:22:58.023Z,61.90
2019-05-12T00:25:28.309Z,61.90
2019-05-12T00:27:58.619Z,61.80
2019-05-12T00:30:32.630Z,61.80
2019-05-12T00:33:03.584Z,61.80
2019-05-12T00:35:32.788Z,61.80
2019-05-12T00:38:02.093Z,62.50
2019-05-12T00:40:31.316Z,61.70
2019-05-12T00:43:00.556Z,61.70
2019-05-12T00:45:29.755Z,61.60
2019-05-12T00:47:59.005Z,61.60
2019-05-12T00:50:28.984Z,61.60
2019-05-12T00:52:58.487Z,61.60
2019-05-12T00:55:28.845Z,61.50
2019-05-12T00:57:58.505Z,61.50
2019-05-12T01:00:29.014Z,61.60
2019-05-12T01:02:58.952Z,61.50
2019-05-12T01:05:29.430Z,61.60
2019-05-12T01:07:58.893Z,61.60
2019-05-12T01:10:28.751Z,61.60
2019-05-12T01:12:58.486Z,61.60
2019-05-12T01:15:28.824Z,61.60
2019-05-12T01:17:58.732Z,61.60
2019-05-12T01:20:28.587Z,61.60
2019-05-12T01:22:58.322Z,61.60
2019-05-12T01:25:28.998Z,61.60
2019-05-12T01:27:59.031Z,61.60
2019-05-12T01:30:28.746Z,61.40
2019-05-12T01:32:58.413Z,61.40
2019-05-12T01:35:28.477Z,61.40
2019-05-12T01:37:58.826Z,61.40
2019-05-12T01:40:29.002Z,61.40
2019-05-12T01:42:58.626Z,61.40
2019-05-12T01:45:28.726Z,61.40
2019-05-12T01:47:58.986Z,61.50
2019-05-12T01:50:28.724Z,61.40
2019-05-12T01:52:59.053Z,61.40
2019-05-12T01:55:28.511Z,61.50
2019-05-12T01:57:58.090Z,61.40
2019-05-12T02:00:28.219Z,61.40
2019-05-12T02:02:58.669Z,61.40
2019-05-12T02:05:28.349Z,61.30
2019-05-12T02:07:59.011Z,61.30
2019-05-12T02:10:28.947Z,61.40
2019-05-12T02:12:59.470Z,61.30
2019-05-12T02:15:28.933Z,61.30
2019-05-12T02:17:58.981Z,61.30
2019-05-12T02:20:31.222Z,61.40
2019-05-12T02:23:00.434Z,61.30
2019-05-12T02:25:29.655Z,61.30
2019-05-12T02:27:58.886Z,61.40
2019-05-12T02:30:30.491Z,61.20
2019-05-12T02:32:59.844Z,61.30
2019-05-12T02:35:29.328Z,61.30
2019-05-12T02:37:58.563Z,61.30
2019-05-12T02:40:27.795Z,61.40
2019-05-12T02:42:57.009Z,61.40
2019-05-12T02:45:26.242Z,61.40
2019-05-12T02:47:55.518Z,61.40
2019-05-12T02:50:35.580Z,61.30
2019-05-12T02:53:05.627Z,61.40
2019-05-12T02:55:35.715Z,61.30
2019-05-12T02:58:06.090Z,61.40
2019-05-12T03:00:36.474Z,61.50
2019-05-12T03:03:08.375Z,62.20
2019-05-12T03:05:39.140Z,61.40
2019-05-12T03:08:08.336Z,61.40
2019-05-12T03:10:37.564Z,61.30
2019-05-12T03:13:06.764Z,61.40
2019-05-12T03:15:37.497Z,61.40
2019-05-12T03:18:07.553Z,61.50
2019-05-12T03:20:37.082Z,61.60
2019-05-12T03:23:07.062Z,61.80
2019-05-12T03:25:37.240Z,61.90
2019-05-12T03:28:09.348Z,61.90
2019-05-12T03:30:40.443Z,62.00
2019-05-12T03:33:11.568Z,61.90
2019-05-12T03:35:43.483Z,62.10
2019-05-12T03:38:10.705Z,62.20
2019-05-12T03:40:39.947Z,62.20
2019-05-12T03:43:09.157Z,62.20
2019-05-12T03:45:38.380Z,62.30
2019-05-12T03:48:07.595Z,62.40
2019-05-12T03:50:36.832Z,62.50
2019-05-12T03:53:10.668Z,62.40
2019-05-12T03:55:41.808Z,62.50
2019-05-12T03:58:08.324Z,62.60
2019-05-12T04:00:37.542Z,62.60
2019-05-12T04:03:07.246Z,62.60
2019-05-12T04:05:36.726Z,62.70
2019-05-12T04:08:06.867Z,62.80
2019-05-12T04:10:37.083Z,62.70
2019-05-12T04:13:06.583Z,62.80
2019-05-12T04:15:36.039Z,62.90
2019-05-12T04:18:06.396Z,63.00
2019-05-12T04:20:36.494Z,63.00
2019-05-12T04:23:07.007Z,63.00
2019-05-12T04:25:51.070Z,62.90
2019-05-12T04:28:07.464Z,63.00
2019-05-12T04:30:36.687Z,62.90
2019-05-12T04:33:06.180Z,62.90
2019-05-12T04:35:35.995Z,63.00
2019-05-12T04:38:05.816Z,62.90
2019-05-12T04:40:36.135Z,62.80
2019-05-12T04:43:06.818Z,62.70
2019-05-12T04:45:36.390Z,62.60
2019-05-12T04:48:06.529Z,62.60
2019-05-12T04:50:36.462Z,62.70
2019-05-12T04:53:07.003Z,62.70
2019-05-12T04:55:36.813Z,62.60
2019-05-12T04:58:06.470Z,62.60
2019-05-12T05:00:36.155Z,62.70
2019-05-12T05:03:06.313Z,62.70
2019-05-12T05:05:36.414Z,62.60
2019-05-12T05:08:05.926Z,62.60
2019-05-12T05:10:35.573Z,62.70
2019-05-12T05:13:05.611Z,62.70
2019-05-12T05:15:35.590Z,62.80
2019-05-12T05:18:06.973Z,62.70
2019-05-12T05:20:36.032Z,62.60
2019-05-12T05:23:05.741Z,62.60
2019-05-12T05:25:35.913Z,62.40
2019-05-12T05:28:05.895Z,62.40
2019-05-12T05:30:35.090Z,62.60
2019-05-12T05:33:05.021Z,62.40
2019-05-12T05:35:39.674Z,62.50
2019-05-12T05:38:10.731Z,62.70
2019-05-12T05:40:37.588Z,62.50
2019-05-12T05:43:18.513Z,62.50
2019-05-12T05:45:37.788Z,62.60
2019-05-12T05:48:10.035Z,62.60
2019-05-12T05:50:38.045Z,62.60
2019-05-12T05:53:09.132Z,62.60
2019-05-12T05:55:38.198Z,62.60
2019-05-12T05:58:10.246Z,62.70
2019-05-12T06:00:39.439Z,62.70
2019-05-12T06:03:17.049Z,62.60
2019-05-12T06:05:39.902Z,62.70
2019-05-12T06:08:17.977Z,62.70
2019-05-12T06:10:40.701Z,62.80
2019-05-12T06:13:09.974Z,62.60
2019-05-12T06:15:40.915Z,63.40
2019-05-12T06:18:10.225Z,62.60
2019-05-12T06:20:39.443Z,62.60
2019-05-12T06:23:08.711Z,62.60
2019-05-12T06:25:49.398Z,62.40
2019-05-12T06:28:09.359Z,62.50
2019-05-12T06:30:44.590Z,62.40
2019-05-12T06:33:09.595Z,62.30
2019-05-12T06:35:42.236Z,62.30
2019-05-12T06:38:09.790Z,62.20
2019-05-12T06:40:40.981Z,62.30
2019-05-12T06:43:10.008Z,62.30
2019-05-12T06:45:42.660Z,62.30
2019-05-12T06:48:10.190Z,62.30
2019-05-12T06:50:39.599Z,62.20
2019-05-12T06:53:08.845Z,62.20
2019-05-12T06:55:39.363Z,62.20
2019-05-12T06:58:08.943Z,62.00
2019-05-12T07:00:38.186Z,62.00
2019-05-12T07:03:07.482Z,61.90
2019-05-12T07:05:38.968Z,61.90
2019-05-12T07:08:07.630Z,61.90
2019-05-12T07:10:43.527Z,62.00
2019-05-12T07:13:07.826Z,61.70
2019-05-12T07:15:40.351Z,61.70
2019-05-12T07:18:10.246Z,61.60
2019-05-12T07:20:39.630Z,61.60
2019-05-12T07:23:08.834Z,61.60
2019-05-12T07:25:38.068Z,62.30
2019-05-12T07:28:08.126Z,61.60
2019-05-12T07:30:37.705Z,61.50
2019-05-12T07:33:06.942Z,61.60
2019-05-12T07:35:36.243Z,61.60
2019-05-12T07:38:05.452Z,61.30
2019-05-12T07:40:37.462Z,61.40
2019-05-12T07:43:09.765Z,61.30
2019-05-12T07:45:36.601Z,61.40
2019-05-12T07:48:10.231Z,61.40
2019-05-12T07:50:36.764Z,61.30
2019-05-12T07:53:05.962Z,61.20
2019-05-12T07:55:39.748Z,61.20
2019-05-12T07:58:14.000Z,61.20
2019-05-12T08:00:37.104Z,61.20
2019-05-12T08:03:16.346Z,61.10
2019-05-12T08:05:37.267Z,61.10
2019-05-12T08:08:10.675Z,61.10
2019-05-12T08:10:37.438Z,60.90
2019-05-12T08:13:06.655Z,61.00
2019-05-12T08:15:39.756Z,60.70
2019-05-12T08:18:08.056Z,60.90
2019-05-12T08:20:37.669Z,61.00
2019-05-12T08:23:10.401Z,60.30
2019-05-12T08:25:37.836Z,60.90
2019-05-12T08:28:18.284Z,60.90
2019-05-12T08:30:49.747Z,60.90
2019-05-12T08:33:10.125Z,60.90
2019-05-12T08:35:39.602Z,60.90
2019-05-12T08:38:08.824Z,60.80
2019-05-12T08:40:48.793Z,60.80
2019-05-12T08:43:10.790Z,60.90
2019-05-12T08:45:39.962Z,60.90
2019-05-12T08:48:19.249Z,60.90
2019-05-12T08:50:42.838Z,60.90
2019-05-12T08:53:20.559Z,60.90
2019-05-12T08:55:43.589Z,60.90
2019-05-12T08:58:29.711Z,60.80
2019-05-12T09:00:49.738Z,60.80
2019-05-12T09:03:14.995Z,61.60
2019-05-12T09:05:44.684Z,60.80
2019-05-12T09:08:14.284Z,60.80
2019-05-12T09:10:45.143Z,60.80
2019-05-12T09:13:14.599Z,60.90
2019-05-12T09:15:43.982Z,60.80
2019-05-12T09:18:14.431Z,60.70
2019-05-12T09:20:48.829Z,60.60
2019-05-12T09:23:14.918Z,60.80
2019-05-12T09:25:48.230Z,60.80
2019-05-12T09:28:15.086Z,60.80
2019-05-12T09:30:45.869Z,60.60
2019-05-12T09:33:15.284Z,60.60
2019-05-12T09:35:44.551Z,60.50
2019-05-12T09:38:21.421Z,60.50
2019-05-12T09:40:44.725Z,60.50
2019-05-12T09:43:13.983Z,60.60
2019-05-12T09:45:51.464Z,60.60
2019-05-12T09:48:14.346Z,60.40
2019-05-12T09:50:46.533Z,60.60
2019-05-12T09:53:15.186Z,60.50
2019-05-12T09:55:44.395Z,60.50
2019-05-12T09:58:22.781Z,60.30
2019-05-12T10:00:45.648Z,60.30
2019-05-12T10:03:14.931Z,60.40
2019-05-12T10:05:44.363Z,60.30
2019-05-12T10:08:13.965Z,60.20
2019-05-12T10:10:47.102Z,60.30
2019-05-12T10:13:20.208Z,60.30
2019-05-12T10:15:47.477Z,60.00
2019-05-12T10:18:16.684Z,60.10
2019-05-12T10:20:45.916Z,60.10
2019-05-12T10:23:19.027Z,60.30
2019-05-12T10:25:46.075Z,60.20
2019-05-12T10:28:16.304Z,60.40
2019-05-12T10:30:47.314Z,59.90
2019-05-12T10:33:16.843Z,59.90
2019-05-12T10:35:46.050Z,59.70
2019-05-12T10:38:15.286Z,59.70
2019-05-12T10:40:47.806Z,59.70
2019-05-12T10:43:15.527Z,60.20
2019-05-12T10:45:44.731Z,59.60
2019-05-12T10:48:14.297Z,59.70
2019-05-12T10:50:44.351Z,59.60
2019-05-12T10:53:15.620Z,59.20
2019-05-12T10:55:44.980Z,59.30
2019-05-12T10:58:14.693Z,59.10
2019-05-12T11:00:44.368Z,59.10
2019-05-12T11:03:15.495Z,59.00
2019-05-12T11:05:44.934Z,58.80
2019-05-12T11:08:14.490Z,58.70
2019-05-12T11:10:43.843Z,58.50
2019-05-12T11:13:14.183Z,58.30
2019-05-12T11:15:46.270Z,58.10
2019-05-12T11:18:20.452Z,58.20
2019-05-12T11:20:46.864Z,58.20
2019-05-12T11:23:16.079Z,58.10
2019-05-12T11:25:45.310Z,58.00
2019-05-12T11:28:14.516Z,57.90
2019-05-12T11:30:43.848Z,57.90
2019-05-12T11:33:13.039Z,57.90
2019-05-12T11:35:43.498Z,57.80
2019-05-12T11:38:13.417Z,57.70
2019-05-12T11:40:43.754Z,57.40
2019-05-12T11:43:14.391Z,57.50
2019-05-12T11:45:44.313Z,57.40
2019-05-12T11:48:14.353Z,57.30
2019-05-12T11:50:47.838Z,57.30
2019-05-12T11:53:14.876Z,57.10
2019-05-12T11:55:44.102Z,57.10
2019-05-12T11:58:14.141Z,57.10
2019-05-12T12:00:47.475Z,57.10
2019-05-12T12:03:18.155Z,57.00
2019-05-12T12:05:47.706Z,56.90
2019-05-12T12:08:16.903Z,56.80
2019-05-12T12:10:49.053Z,56.50
2019-05-12T12:13:19.285Z,56.50
2019-05-12T12:15:48.269Z,56.50
2019-05-12T12:18:17.479Z,56.40
2019-05-12T12:20:47.942Z,56.00
2019-05-12T12:23:17.149Z,56.10
2019-05-12T12:25:48.704Z,56.00
2019-05-12T12:28:17.337Z,56.00
2019-05-12T12:30:52.528Z,56.50
2019-05-12T12:33:17.508Z,55.90
2019-05-12T12:35:50.382Z,55.70
2019-05-12T12:38:17.993Z,55.50
2019-05-12T12:40:47.227Z,55.30
2019-05-12T12:43:16.494Z,55.10
2019-05-12T12:45:47.378Z,55.10
2019-05-12T12:48:19.242Z,55.30
2019-05-12T12:50:47.705Z,54.40
2019-05-12T12:53:16.952Z,54.40
2019-05-12T12:55:46.163Z,54.20
2019-05-12T12:58:20.950Z,54.00
2019-05-12T13:00:47.972Z,53.80
2019-05-12T13:03:19.712Z,53.40
2019-05-12T13:05:48.252Z,53.40
2019-05-12T13:08:17.456Z,53.00
2019-05-12T13:10:51.222Z,53.20
2019-05-12T13:13:17.702Z,53.30
2019-05-12T13:15:46.938Z,53.20
2019-05-12T13:18:24.100Z,53.40
2019-05-12T13:20:47.078Z,53.20
2019-05-12T13:23:16.294Z,53.20
2019-05-12T13:25:50.750Z,53.20
2019-05-12T13:28:18.987Z,53.00
2019-05-12T13:30:49.690Z,53.00
2019-05-12T13:33:18.554Z,52.80
2019-05-12T13:35:50.177Z,53.10
2019-05-12T13:38:18.780Z,52.70
2019-05-12T13:40:47.995Z,52.50
2019-05-12T13:43:19.591Z,52.50
2019-05-12T13:45:48.160Z,52.50
2019-05-12T13:48:19.884Z,52.30
2019-05-12T13:50:48.330Z,52.30
2019-05-12T13:53:17.629Z,52.00
2019-05-12T13:55:49.506Z,51.90
2019-05-12T13:58:17.889Z,51.50
2019-05-12T14:01:00.607Z,51.40
2019-05-12T14:03:18.134Z,51.40
2019-05-12T14:05:51.195Z,51.20
2019-05-12T14:08:18.302Z,51.10
2019-05-12T14:10:53.853Z,51.10
2019-05-12T14:13:18.516Z,50.90
2019-05-12T14:15:47.725Z,51.00
2019-05-12T14:18:20.580Z,50.90
2019-05-12T14:20:50.901Z,51.00
2019-05-12T14:23:18.836Z,50.70
2019-05-12T14:25:48.072Z,50.60
2019-05-12T14:28:17.286Z,50.50
2019-05-12T14:30:49.835Z,50.40
2019-05-12T14:33:18.472Z,50.30
2019-05-12T14:35:47.868Z,50.30
2019-05-12T14:38:19.281Z,50.10
2019-05-12T14:40:48.038Z,49.90
2019-05-12T14:43:21.296Z,50.10
2019-05-12T14:45:48.355Z,50.20
2019-05-12T14:48:17.779Z,50.00
2019-05-12T14:50:47.173Z,50.10
2019-05-12T14:53:16.419Z,50.00
2019-05-12T14:55:45.696Z,49.70
2019-05-12T14:58:20.189Z,49.50
2019-05-12T15:00:45.979Z,49.40
2019-05-12T15:03:16.456Z,49.20
2019-05-12T15:05:47.189Z,49.10
2019-05-12T15:08:21.243Z,49.00
2019-05-12T15:10:47.850Z,49.00
2019-05-12T15:13:17.430Z,49.00
2019-05-12T15:15:50.062Z,48.70
2019-05-12T15:18:17.594Z,48.80
2019-05-12T15:20:49.761Z,48.90
2019-05-12T15:23:17.758Z,48.80
2019-05-12T15:25:47.011Z,48.70
2019-05-12T15:28:16.216Z,48.40
2019-05-12T15:30:45.431Z,48.40
2019-05-12T15:33:14.862Z,48.10
2019-05-12T15:35:44.174Z,47.90
2019-05-12T15:38:15.065Z,47.90
2019-05-12T15:40:45.218Z,47.70
2019-05-12T15:43:14.528Z,47.90
2019-05-12T15:45:48.824Z,47.80
2019-05-12T15:48:18.317Z,47.80
2019-05-12T15:50:46.010Z,47.70
2019-05-12T15:53:22.239Z,47.80
2019-05-12T15:55:46.434Z,47.90
2019-05-12T15:58:15.819Z,47.60
2019-05-12T16:00:45.107Z,47.70
2019-05-12T16:03:14.388Z,47.50
2019-05-12T16:05:44.482Z,47.30
2019-05-12T16:08:14.436Z,47.40
2019-05-12T16:10:44.965Z,47.40
2019-05-12T16:13:15.852Z,47.20
2019-05-12T16:15:49.328Z,47.10
2019-05-12T16:18:16.334Z,47.30
2019-05-12T16:20:45.643Z,47.20
2019-05-12T16:23:23.806Z,47.00
2019-05-12T16:25:46.088Z,47.00
2019-05-12T16:28:23.198Z,47.10
2019-05-12T16:30:47.380Z,47.20
2019-05-12T16:33:20.548Z,47.00
2019-05-12T16:35:47.974Z,46.90
2019-05-12T16:38:19.884Z,46.80
2019-05-12T16:40:49.883Z,46.80
2019-05-12T16:43:19.332Z,46.70
2019-05-12T16:45:48.541Z,46.90
2019-05-12T16:48:29.316Z,46.90
2019-05-12T16:50:48.728Z,46.70
2019-05-12T16:53:21.780Z,46.60
2019-05-12T16:55:50.066Z,46.50
2019-05-12T16:58:24.413Z,46.50
2019-05-12T17:00:53.240Z,46.90
2019-05-12T17:03:23.635Z,47.00
2019-05-12T17:05:55.881Z,47.00
2019-05-12T17:08:24.054Z,46.40
2019-05-12T17:11:03.147Z,46.20
2019-05-12T17:13:24.490Z,46.50
2019-05-12T17:15:57.978Z,46.40
2019-05-12T17:18:24.948Z,46.50
2019-05-12T17:20:54.746Z,46.60
2019-05-12T17:23:24.692Z,46.50
2019-05-12T17:25:54.051Z,47.00
2019-05-12T17:28:23.856Z,46.30
2019-05-12T17:30:54.331Z,46.60
2019-05-12T17:33:27.536Z,46.30
2019-05-12T17:35:54.930Z,46.60
2019-05-12T17:38:25.221Z,46.70
2019-05-12T17:40:58.901Z,46.50
2019-05-12T17:43:27.275Z,46.50
2019-05-12T17:46:01.210Z,47.10
2019-05-12T17:48:27.510Z,46.70
2019-05-12T17:50:56.749Z,46.70
2019-05-12T17:53:30.391Z,47.00
2019-05-12T17:55:56.935Z,47.00
2019-05-12T17:58:29.794Z,47.00
2019-05-12T18:00:57.118Z,47.00
2019-05-12T18:03:26.339Z,47.00
2019-05-12T18:05:55.593Z,47.20
2019-05-12T18:08:32.499Z,46.70
2019-05-12T18:10:55.787Z,46.80
2019-05-12T18:13:27.998Z,46.90
2019-05-12T18:15:56.016Z,46.80
2019-05-12T18:18:32.728Z,46.80
2019-05-12T18:20:56.215Z,47.10
2019-05-12T18:23:30.172Z,47.30
2019-05-12T18:25:56.399Z,47.60
2019-05-12T18:28:27.480Z,47.80
2019-05-12T18:30:56.620Z,47.80
2019-05-12T18:33:33.564Z,48.00
2019-05-12T18:35:56.812Z,48.00
2019-05-12T18:38:26.599Z,48.30
2019-05-12T18:40:56.232Z,48.30
2019-05-12T18:43:25.463Z,48.40
2019-05-12T18:45:59.996Z,48.10
2019-05-12T18:48:25.654Z,48.30
2019-05-12T18:50:54.863Z,48.50
2019-05-12T18:53:31.285Z,48.60
2019-05-12T18:55:55.043Z,48.80
2019-05-12T18:58:30.620Z,48.80
2019-05-12T19:00:55.312Z,49.20
2019-05-12T19:03:25.563Z,48.90
2019-05-12T19:05:57.719Z,48.90
2019-05-12T19:08:25.967Z,49.00
2019-05-12T19:10:55.208Z,49.20
2019-05-12T19:13:24.541Z,49.30
2019-05-12T19:16:02.403Z,49.40
2019-05-12T19:18:32.437Z,49.50
2019-05-12T19:20:55.809Z,49.70
2019-05-12T19:23:34.466Z,49.70
2019-05-12T19:25:55.967Z,49.80
2019-05-12T19:28:25.420Z,49.80
2019-05-12T19:30:54.996Z,49.80
2019-05-12T19:33:25.606Z,49.90
2019-05-12T19:36:04.311Z,50.00
2019-05-12T19:38:25.822Z,50.10
2019-05-12T19:41:00.535Z,50.70
2019-05-12T19:43:26.081Z,50.10
2019-05-12T19:46:02.963Z,50.10
2019-05-12T19:48:27.637Z,50.10
2019-05-12T19:50:57.426Z,50.20
2019-05-12T19:53:26.976Z,50.20
2019-05-12T19:55:56.218Z,50.20
2019-05-12T19:58:25.479Z,51.00
2019-05-12T20:00:54.703Z,50.30
2019-05-12T20:03:24.262Z,50.50
2019-05-12T20:05:54.003Z,50.50
2019-05-12T20:08:23.201Z,50.50
2019-05-12T20:10:54.130Z,50.60
2019-05-12T20:13:24.140Z,50.60
2019-05-12T20:15:53.633Z,50.10
2019-05-12T20:18:23.577Z,50.70
2019-05-12T20:20:54.320Z,50.70
2019-05-12T20:23:24.536Z,50.80
2019-05-12T20:25:54.089Z,50.80
2019-05-12T20:28:24.314Z,50.80
2019-05-12T20:31:00.816Z,50.90
2019-05-12T20:33:24.783Z,50.80
2019-05-12T20:35:54.669Z,50.90
2019-05-12T20:38:33.391Z,51.00
2019-05-12T20:40:55.147Z,51.00
2019-05-12T20:43:32.369Z,51.10
2019-05-12T20:45:55.354Z,51.10
2019-05-12T20:48:26.553Z,51.20
2019-05-12T20:50:55.599Z,51.20
2019-05-12T20:53:31.913Z,51.20
2019-05-12T20:55:55.759Z,51.20
2019-05-12T20:58:28.526Z,51.30
2019-05-12T21:00:55.932Z,51.30
2019-05-12T21:03:26.547Z,51.40
2019-05-12T21:06:01.387Z,51.30
2019-05-12T21:08:26.814Z,51.50
2019-05-12T21:10:56.024Z,51.40
2019-05-12T21:13:31.501Z,51.40
2019-05-12T21:15:56.213Z,51.40
2019-05-12T21:18:25.444Z,51.50
2019-05-12T21:20:54.969Z,51.80
2019-05-12T21:23:24.360Z,51.50
2019-05-12T21:25:58.243Z,51.60
2019-05-12T21:28:24.679Z,51.70
2019-05-12T21:30:55.781Z,51.70
2019-05-12T21:33:24.859Z,51.70
2019-05-12T21:35:54.751Z,51.80
2019-05-12T21:38:27.952Z,51.80
2019-05-12T21:40:55.046Z,51.80
2019-05-12T21:43:24.264Z,51.80
2019-05-12T21:45:53.832Z,51.80
2019-05-12T21:48:25.536Z,51.90
2019-05-12T21:50:55.645Z,51.90
2019-05-12T21:53:26.430Z,52.60
2019-05-12T21:56:04.072Z,52.00
2019-05-12T21:58:26.655Z,52.00
2019-05-12T22:01:04.239Z,52.10
2019-05-12T22:03:29.865Z,52.00
2019-05-12T22:06:06.483Z,52.00
2019-05-12T22:08:33.648Z,52.10
2019-05-12T22:11:09.162Z,52.10
2019-05-12T22:13:33.104Z,52.20
2019-05-12T22:16:03.882Z,52.10
2019-05-12T22:18:33.450Z,52.10
2019-05-12T22:21:06.557Z,52.20
2019-05-12T22:23:33.908Z,52.30
2019-05-12T22:26:04.275Z,52.30
2019-05-12T22:28:34.388Z,52.20
2019-05-12T22:31:04.093Z,52.00
2019-05-12T22:33:33.535Z,52.90
2019-05-12T22:36:13.848Z,52.20
2019-05-12T22:38:34.104Z,52.80
2019-05-12T22:41:04.335Z,52.40
2019-05-12T22:43:41.080Z,52.40
2019-05-12T22:46:04.769Z,51.90
2019-05-12T22:48:37.327Z,52.40
2019-05-12T22:51:08.261Z,52.40
2019-05-12T22:53:35.910Z,52.50
2019-05-12T22:56:12.150Z,52.50
2019-05-12T22:58:36.062Z,52.60
2019-05-12T23:01:05.574Z,52.60
2019-05-12T23:03:34.874Z,52.60
2019-05-12T23:06:20.506Z,52.70
2019-05-12T23:08:38.866Z,52.60
2019-05-12T23:11:06.022Z,52.70
2019-05-12T23:13:40.895Z,52.70
2019-05-12T23:16:06.180Z,52.70
2019-05-12T23:18:35.388Z,52.70
2019-05-12T23:21:12.582Z,52.70
2019-05-12T23:23:35.630Z,52.70
2019-05-12T23:26:04.845Z,52.70
2019-05-12T23:28:34.050Z,52.80
2019-05-12T23:31:04.258Z,52.90
2019-05-12T23:33:36.634Z,52.90
2019-05-12T23:36:09.471Z,53.00
2019-05-12T23:38:35.565Z,52.90
2019-05-12T23:41:04.807Z,52.90
2019-05-12T23:43:34.191Z,53.00
2019-05-12T23:46:03.624Z,53.00
2019-05-12T23:48:33.495Z,53.00
2019-05-12T23:51:03.836Z,53.10
2019-05-12T23:53:34.045Z,53.10
2019-05-12T23:56:03.902Z,53.10
2019-05-12T23:58:33.253Z,53.10
